sensor_id;sensor_type;location;lat;lon;timestamp;P1;durP1;ratioP1;P2;durP2;ratioP2
35306;SDS011;21420;52.196;21.416;2023-07-16T00:02:01;8.00;;;7.00;;
35306;SDS011;21420;52.196;21.416;2023-07-16T00:04:27;9.80;;;7.90;;
35306;SDS011;21420;52.196;21.416;2023-07-16T00:06:54;9.10;;;7.30;;
35306;SDS011;21420;52.196;21.416;2023-07-16T00:09:21;7.70;;;6.70;;
35306;SDS011;21420;52.196;21.416;2023-07-16T00:11:47;8.00;;;6.90;;
35306;SDS011;21420;52.196;21.416;2023-07-16T00:14:14;8.40;;;7.20;;
35306;SDS011;21420;52.196;21.416;2023-07-16T00:16:41;8.20;;;7.40;;
35306;SDS011;21420;52.196;21.416;2023-07-16T00:19:09;8.80;;;7.90;;
35306;SDS011;21420;52.196;21.416;2023-07-16T00:21:37;10.00;;;8.00;;
35306;SDS011;21420;52.196;21.416;2023-07-16T00:24:05;8.50;;;7.70;;
35306;SDS011;21420;52.196;21.416;2023-07-16T00:26:33;7.90;;;7.00;;
35306;SDS011;21420;52.196;21.416;2023-07-16T00:28:59;7.50;;;6.70;;
35306;SDS011;21420;52.196;21.416;2023-07-16T00:31:26;9.90;;;7.80;;
35306;SDS011;21420;52.196;21.416;2023-07-16T00:33:53;8.30;;;7.30;;
35306;SDS011;21420;52.196;21.416;2023-07-16T00:36:20;7.60;;;6.80;;
35306;SDS011;21420;52.196;21.416;2023-07-16T00:38:47;8.60;;;6.90;;
35306;SDS011;21420;52.196;21.416;2023-07-16T00:41:13;7.80;;;6.80;;
35306;SDS011;21420;52.196;21.416;2023-07-16T00:43:40;8.50;;;7.60;;
35306;SDS011;21420;52.196;21.416;2023-07-16T00:46:08;7.60;;;6.80;;
35306;SDS011;21420;52.196;21.416;2023-07-16T00:48:36;7.60;;;6.90;;
35306;SDS011;21420;52.196;21.416;2023-07-16T00:51:03;9.90;;;8.00;;
35306;SDS011;21420;52.196;21.416;2023-07-16T00:53:31;8.40;;;7.50;;
35306;SDS011;21420;52.196;21.416;2023-07-16T00:55:58;7.90;;;7.10;;
35306;SDS011;21420;52.196;21.416;2023-07-16T00:58:25;8.10;;;7.20;;
35306;SDS011;21420;52.196;21.416;2023-07-16T01:00:54;8.50;;;7.60;;
35306;SDS011;21420;52.196;21.416;2023-07-16T01:03:23;8.20;;;6.90;;
35306;SDS011;21420;52.196;21.416;2023-07-16T01:08:35;10.70;;;7.00;;
35306;SDS011;21420;52.196;21.416;2023-07-16T01:11:07;11.30;;;7.70;;
35306;SDS011;21420;52.196;21.416;2023-07-16T01:13:35;9.10;;;7.20;;
35306;SDS011;21420;52.196;21.416;2023-07-16T01:16:05;10.10;;;7.60;;
35306;SDS011;21420;52.196;21.416;2023-07-16T01:19:11;8.70;;;7.70;;
35306;SDS011;21420;52.196;21.416;2023-07-16T01:21:46;7.80;;;7.00;;
35306;SDS011;21420;52.196;21.416;2023-07-16T01:27:30;10.40;;;8.10;;
35306;SDS011;21420;52.196;21.416;2023-07-16T01:30:11;8.30;;;7.50;;
35306;SDS011;21420;52.196;21.416;2023-07-16T01:32:42;7.30;;;6.60;;
35306;SDS011;21420;52.196;21.416;2023-07-16T01:35:11;8.30;;;7.50;;
35306;SDS011;21420;52.196;21.416;2023-07-16T01:37:40;9.40;;;7.70;;
35306;SDS011;21420;52.196;21.416;2023-07-16T01:40:08;9.80;;;8.10;;
35306;SDS011;21420;52.196;21.416;2023-07-16T01:42:35;8.70;;;7.80;;
35306;SDS011;21420;52.196;21.416;2023-07-16T01:45:02;9.90;;;7.70;;
35306;SDS011;21420;52.196;21.416;2023-07-16T01:47:40;9.50;;;8.10;;
35306;SDS011;21420;52.196;21.416;2023-07-16T01:50:17;9.00;;;8.10;;
35306;SDS011;21420;52.196;21.416;2023-07-16T01:52:44;7.80;;;7.10;;
35306;SDS011;21420;52.196;21.416;2023-07-16T01:55:10;9.50;;;8.50;;
35306;SDS011;21420;52.196;21.416;2023-07-16T01:57:37;9.60;;;8.60;;
35306;SDS011;21420;52.196;21.416;2023-07-16T02:00:04;10.00;;;9.00;;
35306;SDS011;21420;52.196;21.416;2023-07-16T02:02:44;9.40;;;8.60;;
35306;SDS011;21420;52.196;21.416;2023-07-16T02:05:12;10.20;;;8.40;;
35306;SDS011;21420;52.196;21.416;2023-07-16T02:07:40;9.80;;;8.80;;
35306;SDS011;21420;52.196;21.416;2023-07-16T02:10:06;10.40;;;9.40;;
35306;SDS011;21420;52.196;21.416;2023-07-16T02:12:33;10.40;;;9.40;;
35306;SDS011;21420;52.196;21.416;2023-07-16T02:15:00;9.90;;;9.00;;
35306;SDS011;21420;52.196;21.416;2023-07-16T02:17:33;10.50;;;9.50;;
35306;SDS011;21420;52.196;21.416;2023-07-16T02:19:59;10.90;;;9.80;;
35306;SDS011;21420;52.196;21.416;2023-07-16T02:22:26;10.10;;;8.80;;
35306;SDS011;21420;52.196;21.416;2023-07-16T02:24:53;11.20;;;10.10;;
35306;SDS011;21420;52.196;21.416;2023-07-16T02:27:19;11.80;;;9.50;;
35306;SDS011;21420;52.196;21.416;2023-07-16T02:29:46;12.40;;;9.50;;
35306;SDS011;21420;52.196;21.416;2023-07-16T02:32:13;11.00;;;9.90;;
35306;SDS011;21420;52.196;21.416;2023-07-16T02:34:39;12.40;;;10.50;;
35306;SDS011;21420;52.196;21.416;2023-07-16T02:37:06;11.50;;;10.40;;
35306;SDS011;21420;52.196;21.416;2023-07-16T02:39:33;11.70;;;10.60;;
35306;SDS011;21420;52.196;21.416;2023-07-16T02:41:59;11.50;;;10.50;;
35306;SDS011;21420;52.196;21.416;2023-07-16T02:44:26;13.60;;;11.20;;
35306;SDS011;21420;52.196;21.416;2023-07-16T02:46:53;12.30;;;10.20;;
35306;SDS011;21420;52.196;21.416;2023-07-16T02:49:20;11.70;;;10.50;;
35306;SDS011;21420;52.196;21.416;2023-07-16T02:51:47;11.10;;;10.00;;
35306;SDS011;21420;52.196;21.416;2023-07-16T02:54:13;10.90;;;9.90;;
35306;SDS011;21420;52.196;21.416;2023-07-16T02:56:40;11.80;;;10.80;;
35306;SDS011;21420;52.196;21.416;2023-07-16T02:59:06;11.00;;;9.90;;
35306;SDS011;21420;52.196;21.416;2023-07-16T03:01:33;10.90;;;9.80;;
35306;SDS011;21420;52.196;21.416;2023-07-16T03:04:00;14.20;;;10.80;;
35306;SDS011;21420;52.196;21.416;2023-07-16T03:06:26;11.40;;;10.30;;
35306;SDS011;21420;52.196;21.416;2023-07-16T03:08:53;12.20;;;11.10;;
35306;SDS011;21420;52.196;21.416;2023-07-16T03:11:20;13.20;;;11.80;;
35306;SDS011;21420;52.196;21.416;2023-07-16T03:13:46;13.10;;;11.80;;
35306;SDS011;21420;52.196;21.416;2023-07-16T03:16:13;14.40;;;11.60;;
35306;SDS011;21420;52.196;21.416;2023-07-16T03:18:40;11.10;;;10.00;;
35306;SDS011;21420;52.196;21.416;2023-07-16T03:21:07;10.10;;;9.00;;
35306;SDS011;21420;52.196;21.416;2023-07-16T03:23:34;9.70;;;8.80;;
35306;SDS011;21420;52.196;21.416;2023-07-16T03:26:01;11.50;;;10.30;;
35306;SDS011;21420;52.196;21.416;2023-07-16T03:28:28;9.90;;;8.90;;
35306;SDS011;21420;52.196;21.416;2023-07-16T03:30:54;11.30;;;10.20;;
35306;SDS011;21420;52.196;21.416;2023-07-16T03:33:21;12.30;;;11.00;;
35306;SDS011;21420;52.196;21.416;2023-07-16T03:35:48;12.70;;;11.50;;
35306;SDS011;21420;52.196;21.416;2023-07-16T03:38:17;12.80;;;11.50;;
35306;SDS011;21420;52.196;21.416;2023-07-16T03:40:47;11.80;;;10.60;;
35306;SDS011;21420;52.196;21.416;2023-07-16T03:43:16;12.40;;;10.90;;
35306;SDS011;21420;52.196;21.416;2023-07-16T03:45:43;12.10;;;10.90;;
35306;SDS011;21420;52.196;21.416;2023-07-16T03:48:10;12.10;;;10.90;;
35306;SDS011;21420;52.196;21.416;2023-07-16T03:50:37;11.70;;;10.60;;
35306;SDS011;21420;52.196;21.416;2023-07-16T03:53:04;11.70;;;10.50;;
35306;SDS011;21420;52.196;21.416;2023-07-16T03:55:30;11.00;;;9.90;;
35306;SDS011;21420;52.196;21.416;2023-07-16T03:57:57;10.60;;;9.60;;
35306;SDS011;21420;52.196;21.416;2023-07-16T04:00:25;11.30;;;10.00;;
35306;SDS011;21420;52.196;21.416;2023-07-16T04:02:51;11.90;;;10.50;;
35306;SDS011;21420;52.196;21.416;2023-07-16T04:05:18;11.30;;;10.00;;
35306;SDS011;21420;52.196;21.416;2023-07-16T04:07:49;11.40;;;10.20;;
35306;SDS011;21420;52.196;21.416;2023-07-16T04:10:16;11.10;;;10.00;;
35306;SDS011;21420;52.196;21.416;2023-07-16T04:12:43;10.30;;;9.40;;
35306;SDS011;21420;52.196;21.416;2023-07-16T04:15:10;10.80;;;9.80;;
35306;SDS011;21420;52.196;21.416;2023-07-16T04:17:40;11.30;;;10.10;;
35306;SDS011;21420;52.196;21.416;2023-07-16T04:20:07;11.00;;;10.10;;
35306;SDS011;21420;52.196;21.416;2023-07-16T04:22:34;11.40;;;10.20;;
35306;SDS011;21420;52.196;21.416;2023-07-16T04:25:02;11.00;;;9.90;;
35306;SDS011;21420;52.196;21.416;2023-07-16T04:27:30;11.90;;;10.50;;
35306;SDS011;21420;52.196;21.416;2023-07-16T04:29:57;14.80;;;10.40;;
35306;SDS011;21420;52.196;21.416;2023-07-16T04:32:24;11.20;;;10.10;;
35306;SDS011;21420;52.196;21.416;2023-07-16T04:34:50;11.30;;;10.10;;
35306;SDS011;21420;52.196;21.416;2023-07-16T04:37:17;12.80;;;10.20;;
35306;SDS011;21420;52.196;21.416;2023-07-16T04:39:44;11.30;;;10.10;;
35306;SDS011;21420;52.196;21.416;2023-07-16T04:42:10;12.80;;;10.00;;
35306;SDS011;21420;52.196;21.416;2023-07-16T04:44:37;12.90;;;10.20;;
35306;SDS011;21420;52.196;21.416;2023-07-16T04:47:03;10.70;;;9.70;;
35306;SDS011;21420;52.196;21.416;2023-07-16T04:49:31;12.50;;;9.90;;
35306;SDS011;21420;52.196;21.416;2023-07-16T04:51:58;9.80;;;7.80;;
35306;SDS011;21420;52.196;21.416;2023-07-16T04:54:24;10.80;;;9.20;;
35306;SDS011;21420;52.196;21.416;2023-07-16T04:56:51;12.20;;;9.70;;
35306;SDS011;21420;52.196;21.416;2023-07-16T04:59:18;10.80;;;9.80;;
35306;SDS011;21420;52.196;21.416;2023-07-16T05:01:44;10.60;;;9.60;;
35306;SDS011;21420;52.196;21.416;2023-07-16T05:04:11;12.30;;;11.00;;
35306;SDS011;21420;52.196;21.416;2023-07-16T05:06:38;10.20;;;9.00;;
35306;SDS011;21420;52.196;21.416;2023-07-16T05:09:04;9.20;;;8.30;;
35306;SDS011;21420;52.196;21.416;2023-07-16T05:11:31;12.30;;;9.50;;
35306;SDS011;21420;52.196;21.416;2023-07-16T05:13:59;11.70;;;10.00;;
35306;SDS011;21420;52.196;21.416;2023-07-16T05:16:26;10.20;;;9.20;;
35306;SDS011;21420;52.196;21.416;2023-07-16T05:18:53;10.40;;;9.60;;
35306;SDS011;21420;52.196;21.416;2023-07-16T05:21:19;10.90;;;9.50;;
35306;SDS011;21420;52.196;21.416;2023-07-16T05:23:46;11.90;;;9.50;;
35306;SDS011;21420;52.196;21.416;2023-07-16T05:26:13;10.90;;;9.80;;
35306;SDS011;21420;52.196;21.416;2023-07-16T05:28:40;10.60;;;9.50;;
35306;SDS011;21420;52.196;21.416;2023-07-16T05:31:06;10.70;;;9.60;;
35306;SDS011;21420;52.196;21.416;2023-07-16T05:33:33;11.20;;;9.10;;
35306;SDS011;21420;52.196;21.416;2023-07-16T05:36:00;10.50;;;8.90;;
35306;SDS011;21420;52.196;21.416;2023-07-16T05:38:27;9.00;;;8.20;;
35306;SDS011;21420;52.196;21.416;2023-07-16T05:40:53;10.50;;;9.40;;
35306;SDS011;21420;52.196;21.416;2023-07-16T05:43:25;11.00;;;8.90;;
35306;SDS011;21420;52.196;21.416;2023-07-16T05:45:52;10.10;;;8.80;;
35306;SDS011;21420;52.196;21.416;2023-07-16T05:48:19;10.40;;;9.30;;
35306;SDS011;21420;52.196;21.416;2023-07-16T05:50:46;10.00;;;8.90;;
35306;SDS011;21420;52.196;21.416;2023-07-16T05:53:12;10.00;;;9.10;;
35306;SDS011;21420;52.196;21.416;2023-07-16T05:58:09;9.30;;;8.30;;
35306;SDS011;21420;52.196;21.416;2023-07-16T06:00:35;9.30;;;8.50;;
35306;SDS011;21420;52.196;21.416;2023-07-16T06:03:02;12.00;;;8.50;;
35306;SDS011;21420;52.196;21.416;2023-07-16T06:05:29;9.20;;;8.30;;
35306;SDS011;21420;52.196;21.416;2023-07-16T06:08:00;11.70;;;8.90;;
35306;SDS011;21420;52.196;21.416;2023-07-16T06:10:28;10.20;;;9.30;;
35306;SDS011;21420;52.196;21.416;2023-07-16T06:12:55;9.40;;;8.50;;
35306;SDS011;21420;52.196;21.416;2023-07-16T06:15:21;9.30;;;8.40;;
35306;SDS011;21420;52.196;21.416;2023-07-16T06:17:48;9.70;;;8.90;;
35306;SDS011;21420;52.196;21.416;2023-07-16T06:20:15;9.50;;;8.70;;
35306;SDS011;21420;52.196;21.416;2023-07-16T06:22:42;9.00;;;8.20;;
35306;SDS011;21420;52.196;21.416;2023-07-16T06:25:09;8.90;;;7.90;;
35306;SDS011;21420;52.196;21.416;2023-07-16T06:27:37;9.20;;;8.30;;
35306;SDS011;21420;52.196;21.416;2023-07-16T06:30:05;9.60;;;8.30;;
35306;SDS011;21420;52.196;21.416;2023-07-16T06:32:32;9.50;;;8.00;;
35306;SDS011;21420;52.196;21.416;2023-07-16T06:34:59;8.20;;;7.50;;
35306;SDS011;21420;52.196;21.416;2023-07-16T06:37:25;9.20;;;7.90;;
35306;SDS011;21420;52.196;21.416;2023-07-16T06:39:52;8.00;;;7.10;;
35306;SDS011;21420;52.196;21.416;2023-07-16T06:42:19;8.20;;;7.50;;
35306;SDS011;21420;52.196;21.416;2023-07-16T06:44:47;8.60;;;7.90;;
35306;SDS011;21420;52.196;21.416;2023-07-16T06:47:14;9.70;;;7.60;;
35306;SDS011;21420;52.196;21.416;2023-07-16T06:49:41;12.00;;;8.60;;
35306;SDS011;21420;52.196;21.416;2023-07-16T06:52:17;8.10;;;6.80;;
35306;SDS011;21420;52.196;21.416;2023-07-16T06:54:45;8.20;;;7.40;;
35306;SDS011;21420;52.196;21.416;2023-07-16T06:57:12;8.10;;;7.30;;
35306;SDS011;21420;52.196;21.416;2023-07-16T06:59:39;11.50;;;7.20;;
35306;SDS011;21420;52.196;21.416;2023-07-16T07:02:06;7.60;;;7.00;;
35306;SDS011;21420;52.196;21.416;2023-07-16T07:04:32;7.70;;;7.00;;
35306;SDS011;21420;52.196;21.416;2023-07-16T07:06:59;8.10;;;7.20;;
35306;SDS011;21420;52.196;21.416;2023-07-16T07:09:26;7.70;;;7.00;;
35306;SDS011;21420;52.196;21.416;2023-07-16T07:11:53;7.80;;;6.90;;
35306;SDS011;21420;52.196;21.416;2023-07-16T07:14:19;8.20;;;6.70;;
35306;SDS011;21420;52.196;21.416;2023-07-16T07:16:46;6.80;;;6.20;;
35306;SDS011;21420;52.196;21.416;2023-07-16T07:19:14;6.30;;;5.70;;
35306;SDS011;21420;52.196;21.416;2023-07-16T07:21:48;6.00;;;5.50;;
35306;SDS011;21420;52.196;21.416;2023-07-16T07:24:15;9.90;;;6.00;;
35306;SDS011;21420;52.196;21.416;2023-07-16T07:26:42;5.60;;;5.10;;
35306;SDS011;21420;52.196;21.416;2023-07-16T07:29:08;5.60;;;5.20;;
35306;SDS011;21420;52.196;21.416;2023-07-16T07:31:35;6.50;;;5.00;;
35306;SDS011;21420;52.196;21.416;2023-07-16T07:34:02;6.00;;;5.00;;
35306;SDS011;21420;52.196;21.416;2023-07-16T07:36:29;7.00;;;5.10;;
35306;SDS011;21420;52.196;21.416;2023-07-16T07:38:55;5.40;;;4.90;;
35306;SDS011;21420;52.196;21.416;2023-07-16T07:41:22;5.30;;;4.80;;
35306;SDS011;21420;52.196;21.416;2023-07-16T07:43:49;5.10;;;4.60;;
35306;SDS011;21420;52.196;21.416;2023-07-16T07:46:15;5.30;;;4.80;;
35306;SDS011;21420;52.196;21.416;2023-07-16T07:48:43;5.50;;;4.60;;
35306;SDS011;21420;52.196;21.416;2023-07-16T07:51:10;6.20;;;4.30;;
35306;SDS011;21420;52.196;21.416;2023-07-16T07:53:36;5.70;;;4.30;;
35306;SDS011;21420;52.196;21.416;2023-07-16T07:56:03;4.90;;;4.50;;
35306;SDS011;21420;52.196;21.416;2023-07-16T07:58:30;4.70;;;4.30;;
35306;SDS011;21420;52.196;21.416;2023-07-16T08:00:59;6.40;;;4.10;;
35306;SDS011;21420;52.196;21.416;2023-07-16T08:03:30;4.00;;;3.80;;
35306;SDS011;21420;52.196;21.416;2023-07-16T08:05:57;4.20;;;3.90;;
35306;SDS011;21420;52.196;21.416;2023-07-16T08:08:24;6.50;;;4.00;;
35306;SDS011;21420;52.196;21.416;2023-07-16T08:10:51;4.60;;;4.10;;
35306;SDS011;21420;52.196;21.416;2023-07-16T08:13:18;3.90;;;3.70;;
35306;SDS011;21420;52.196;21.416;2023-07-16T08:15:44;4.60;;;4.20;;
35306;SDS011;21420;52.196;21.416;2023-07-16T08:18:11;4.20;;;3.90;;
35306;SDS011;21420;52.196;21.416;2023-07-16T08:20:38;4.30;;;4.00;;
35306;SDS011;21420;52.196;21.416;2023-07-16T08:23:05;5.00;;;4.00;;
35306;SDS011;21420;52.196;21.416;2023-07-16T08:25:31;4.20;;;3.70;;
35306;SDS011;21420;52.196;21.416;2023-07-16T08:27:58;4.20;;;3.90;;
35306;SDS011;21420;52.196;21.416;2023-07-16T08:30:25;3.80;;;3.50;;
35306;SDS011;21420;52.196;21.416;2023-07-16T08:32:53;4.70;;;3.80;;
35306;SDS011;21420;52.196;21.416;2023-07-16T08:35:19;3.90;;;3.50;;
35306;SDS011;21420;52.196;21.416;2023-07-16T08:37:46;3.90;;;3.60;;
35306;SDS011;21420;52.196;21.416;2023-07-16T08:40:13;5.20;;;3.50;;
35306;SDS011;21420;52.196;21.416;2023-07-16T08:42:40;3.40;;;3.10;;
35306;SDS011;21420;52.196;21.416;2023-07-16T08:45:10;3.50;;;3.20;;
35306;SDS011;21420;52.196;21.416;2023-07-16T08:47:37;3.80;;;3.30;;
35306;SDS011;21420;52.196;21.416;2023-07-16T08:50:04;3.50;;;3.20;;
35306;SDS011;21420;52.196;21.416;2023-07-16T08:52:31;5.30;;;3.20;;
35306;SDS011;21420;52.196;21.416;2023-07-16T08:54:58;5.60;;;3.90;;
35306;SDS011;21420;52.196;21.416;2023-07-16T08:57:25;2.80;;;2.60;;
35306;SDS011;21420;52.196;21.416;2023-07-16T08:59:53;3.60;;;2.90;;
35306;SDS011;21420;52.196;21.416;2023-07-16T09:02:21;3.00;;;2.80;;
35306;SDS011;21420;52.196;21.416;2023-07-16T09:04:49;5.40;;;3.40;;
35306;SDS011;21420;52.196;21.416;2023-07-16T09:07:18;3.40;;;3.20;;
35306;SDS011;21420;52.196;21.416;2023-07-16T09:09:55;4.50;;;3.30;;
35306;SDS011;21420;52.196;21.416;2023-07-16T09:12:27;3.10;;;2.70;;
35306;SDS011;21420;52.196;21.416;2023-07-16T09:14:54;4.90;;;2.90;;
35306;SDS011;21420;52.196;21.416;2023-07-16T09:17:24;3.30;;;3.00;;
35306;SDS011;21420;52.196;21.416;2023-07-16T09:19:52;3.20;;;2.90;;
35306;SDS011;21420;52.196;21.416;2023-07-16T09:22:20;3.30;;;2.70;;
35306;SDS011;21420;52.196;21.416;2023-07-16T09:24:47;3.00;;;2.80;;
35306;SDS011;21420;52.196;21.416;2023-07-16T09:27:14;4.70;;;3.00;;
35306;SDS011;21420;52.196;21.416;2023-07-16T09:29:41;3.30;;;2.60;;
35306;SDS011;21420;52.196;21.416;2023-07-16T09:32:08;3.70;;;3.30;;
35306;SDS011;21420;52.196;21.416;2023-07-16T09:34:35;4.40;;;3.30;;
35306;SDS011;21420;52.196;21.416;2023-07-16T09:37:03;5.50;;;3.30;;
35306;SDS011;21420;52.196;21.416;2023-07-16T09:39:31;4.60;;;3.00;;
35306;SDS011;21420;52.196;21.416;2023-07-16T09:41:59;5.10;;;3.20;;
35306;SDS011;21420;52.196;21.416;2023-07-16T09:44:29;3.50;;;3.20;;
35306;SDS011;21420;52.196;21.416;2023-07-16T09:46:56;3.20;;;2.90;;
35306;SDS011;21420;52.196;21.416;2023-07-16T09:49:24;4.20;;;3.50;;
35306;SDS011;21420;52.196;21.416;2023-07-16T09:51:55;3.30;;;3.10;;
35306;SDS011;21420;52.196;21.416;2023-07-16T09:54:23;3.90;;;3.40;;
35306;SDS011;21420;52.196;21.416;2023-07-16T09:56:57;4.40;;;3.30;;
35306;SDS011;21420;52.196;21.416;2023-07-16T09:59:27;3.90;;;3.20;;
35306;SDS011;21420;52.196;21.416;2023-07-16T10:01:57;4.50;;;3.20;;
35306;SDS011;21420;52.196;21.416;2023-07-16T10:04:24;3.70;;;3.30;;
35306;SDS011;21420;52.196;21.416;2023-07-16T10:06:52;3.40;;;3.10;;
35306;SDS011;21420;52.196;21.416;2023-07-16T10:12:19;3.80;;;3.10;;
35306;SDS011;21420;52.196;21.416;2023-07-16T10:14:47;4.50;;;3.30;;
35306;SDS011;21420;52.196;21.416;2023-07-16T10:17:19;3.40;;;3.10;;
35306;SDS011;21420;52.196;21.416;2023-07-16T10:22:18;4.00;;;3.30;;
35306;SDS011;21420;52.196;21.416;2023-07-16T10:24:51;3.30;;;2.90;;
35306;SDS011;21420;52.196;21.416;2023-07-16T10:27:26;3.20;;;2.90;;
35306;SDS011;21420;52.196;21.416;2023-07-16T10:29:53;3.40;;;3.10;;
35306;SDS011;21420;52.196;21.416;2023-07-16T10:32:21;3.10;;;2.90;;
35306;SDS011;21420;52.196;21.416;2023-07-16T10:37:16;3.60;;;3.30;;
35306;SDS011;21420;52.196;21.416;2023-07-16T10:39:46;3.80;;;3.30;;
35306;SDS011;21420;52.196;21.416;2023-07-16T10:42:17;3.20;;;3.00;;
35306;SDS011;21420;52.196;21.416;2023-07-16T10:44:48;3.60;;;3.30;;
35306;SDS011;21420;52.196;21.416;2023-07-16T10:47:22;4.00;;;3.10;;
35306;SDS011;21420;52.196;21.416;2023-07-16T10:49:51;4.20;;;3.30;;
35306;SDS011;21420;52.196;21.416;2023-07-16T10:52:21;4.50;;;3.10;;
35306;SDS011;21420;52.196;21.416;2023-07-16T10:54:49;3.60;;;3.30;;
35306;SDS011;21420;52.196;21.416;2023-07-16T10:57:24;4.30;;;2.70;;
35306;SDS011;21420;52.196;21.416;2023-07-16T10:59:51;3.80;;;2.90;;
35306;SDS011;21420;52.196;21.416;2023-07-16T11:02:20;4.90;;;3.40;;
35306;SDS011;21420;52.196;21.416;2023-07-16T11:04:48;3.20;;;3.00;;
35306;SDS011;21420;52.196;21.416;2023-07-16T11:07:16;5.40;;;3.40;;
35306;SDS011;21420;52.196;21.416;2023-07-16T11:09:47;3.10;;;2.90;;
35306;SDS011;21420;52.196;21.416;2023-07-16T11:12:16;4.00;;;3.40;;
35306;SDS011;21420;52.196;21.416;2023-07-16T11:14:53;3.80;;;3.50;;
35306;SDS011;21420;52.196;21.416;2023-07-16T11:17:21;4.10;;;3.40;;
35306;SDS011;21420;52.196;21.416;2023-07-16T11:19:51;3.60;;;3.30;;
35306;SDS011;21420;52.196;21.416;2023-07-16T11:22:19;5.30;;;3.10;;
35306;SDS011;21420;52.196;21.416;2023-07-16T11:24:46;4.50;;;3.40;;
35306;SDS011;21420;52.196;21.416;2023-07-16T11:27:15;4.70;;;3.60;;
35306;SDS011;21420;52.196;21.416;2023-07-16T11:29:51;3.80;;;3.50;;
35306;SDS011;21420;52.196;21.416;2023-07-16T11:32:30;6.10;;;3.30;;
35306;SDS011;21420;52.196;21.416;2023-07-16T11:35:01;3.60;;;3.30;;
35306;SDS011;21420;52.196;21.416;2023-07-16T11:37:32;3.70;;;3.40;;
35306;SDS011;21420;52.196;21.416;2023-07-16T11:40:02;6.60;;;4.10;;
35306;SDS011;21420;52.196;21.416;2023-07-16T11:42:31;4.70;;;3.90;;
35306;SDS011;21420;52.196;21.416;2023-07-16T11:45:02;3.50;;;3.10;;
35306;SDS011;21420;52.196;21.416;2023-07-16T11:47:30;7.30;;;4.00;;
35306;SDS011;21420;52.196;21.416;2023-07-16T11:49:58;3.60;;;3.20;;
35306;SDS011;21420;52.196;21.416;2023-07-16T11:52:27;5.00;;;3.20;;
35306;SDS011;21420;52.196;21.416;2023-07-16T11:54:56;3.80;;;3.50;;
35306;SDS011;21420;52.196;21.416;2023-07-16T11:57:26;3.90;;;3.60;;
35306;SDS011;21420;52.196;21.416;2023-07-16T11:59:53;5.30;;;3.50;;
35306;SDS011;21420;52.196;21.416;2023-07-16T12:02:20;4.30;;;3.60;;
35306;SDS011;21420;52.196;21.416;2023-07-16T12:04:48;5.80;;;3.80;;
35306;SDS011;21420;52.196;21.416;2023-07-16T12:07:15;4.10;;;3.80;;
35306;SDS011;21420;52.196;21.416;2023-07-16T12:09:57;4.50;;;4.00;;
35306;SDS011;21420;52.196;21.416;2023-07-16T12:12:23;5.10;;;4.20;;
35306;SDS011;21420;52.196;21.416;2023-07-16T12:14:51;5.80;;;4.50;;
35306;SDS011;21420;52.196;21.416;2023-07-16T12:17:17;5.80;;;4.50;;
35306;SDS011;21420;52.196;21.416;2023-07-16T12:19:44;4.50;;;4.10;;
35306;SDS011;21420;52.196;21.416;2023-07-16T12:22:11;6.80;;;5.00;;
35306;SDS011;21420;52.196;21.416;2023-07-16T12:24:38;5.20;;;4.60;;
35306;SDS011;21420;52.196;21.416;2023-07-16T12:27:05;7.20;;;5.00;;
35306;SDS011;21420;52.196;21.416;2023-07-16T12:29:32;5.40;;;4.80;;
35306;SDS011;21420;52.196;21.416;2023-07-16T12:31:59;6.40;;;4.40;;
35306;SDS011;21420;52.196;21.416;2023-07-16T12:34:26;5.40;;;4.70;;
35306;SDS011;21420;52.196;21.416;2023-07-16T12:36:53;6.10;;;4.80;;
35306;SDS011;21420;52.196;21.416;2023-07-16T12:39:21;6.10;;;5.10;;
35306;SDS011;21420;52.196;21.416;2023-07-16T12:41:49;5.20;;;4.80;;
35306;SDS011;21420;52.196;21.416;2023-07-16T12:44:16;5.50;;;4.90;;
35306;SDS011;21420;52.196;21.416;2023-07-16T12:46:42;8.90;;;5.20;;
35306;SDS011;21420;52.196;21.416;2023-07-16T12:49:09;7.50;;;5.00;;
35306;SDS011;21420;52.196;21.416;2023-07-16T12:51:36;7.00;;;5.50;;
35306;SDS011;21420;52.196;21.416;2023-07-16T12:54:02;5.50;;;5.00;;
35306;SDS011;21420;52.196;21.416;2023-07-16T12:56:29;6.50;;;5.50;;
35306;SDS011;21420;52.196;21.416;2023-07-16T12:58:57;7.30;;;5.30;;
35306;SDS011;21420;52.196;21.416;2023-07-16T13:01:24;6.10;;;5.10;;
35306;SDS011;21420;52.196;21.416;2023-07-16T13:03:51;7.40;;;5.30;;
35306;SDS011;21420;52.196;21.416;2023-07-16T13:06:18;6.50;;;5.50;;
35306;SDS011;21420;52.196;21.416;2023-07-16T13:08:45;8.90;;;5.30;;
35306;SDS011;21420;52.196;21.416;2023-07-16T13:11:11;5.40;;;4.80;;
35306;SDS011;21420;52.196;21.416;2023-07-16T13:13:38;5.80;;;5.20;;
35306;SDS011;21420;52.196;21.416;2023-07-16T13:16:05;8.20;;;4.90;;
35306;SDS011;21420;52.196;21.416;2023-07-16T13:18:31;6.20;;;5.30;;
35306;SDS011;21420;52.196;21.416;2023-07-16T13:20:58;7.30;;;5.60;;
35306;SDS011;21420;52.196;21.416;2023-07-16T13:23:25;6.10;;;5.60;;
35306;SDS011;21420;52.196;21.416;2023-07-16T13:25:52;6.30;;;5.70;;
35306;SDS011;21420;52.196;21.416;2023-07-16T13:28:19;6.70;;;4.90;;
35306;SDS011;21420;52.196;21.416;2023-07-16T13:30:46;5.40;;;4.80;;
35306;SDS011;21420;52.196;21.416;2023-07-16T13:33:13;7.60;;;5.40;;
35306;SDS011;21420;52.196;21.416;2023-07-16T13:35:40;6.30;;;5.60;;
35306;SDS011;21420;52.196;21.416;2023-07-16T13:38:07;5.40;;;4.90;;
35306;SDS011;21420;52.196;21.416;2023-07-16T13:40:34;5.80;;;5.20;;
35306;SDS011;21420;52.196;21.416;2023-07-16T13:43:01;6.00;;;5.30;;
35306;SDS011;21420;52.196;21.416;2023-07-16T13:45:27;7.50;;;5.10;;
35306;SDS011;21420;52.196;21.416;2023-07-16T13:47:54;7.20;;;5.10;;
35306;SDS011;21420;52.196;21.416;2023-07-16T13:50:21;5.80;;;5.20;;
35306;SDS011;21420;52.196;21.416;2023-07-16T13:52:48;6.80;;;5.20;;
35306;SDS011;21420;52.196;21.416;2023-07-16T13:55:15;5.30;;;4.70;;
35306;SDS011;21420;52.196;21.416;2023-07-16T13:57:42;6.10;;;4.70;;
35306;SDS011;21420;52.196;21.416;2023-07-16T14:00:09;5.40;;;5.00;;
35306;SDS011;21420;52.196;21.416;2023-07-16T14:02:37;5.50;;;5.10;;
35306;SDS011;21420;52.196;21.416;2023-07-16T14:05:04;5.30;;;4.80;;
35306;SDS011;21420;52.196;21.416;2023-07-16T14:07:30;5.10;;;4.70;;
35306;SDS011;21420;52.196;21.416;2023-07-16T14:09:57;7.30;;;4.80;;
35306;SDS011;21420;52.196;21.416;2023-07-16T14:12:24;5.20;;;4.70;;
35306;SDS011;21420;52.196;21.416;2023-07-16T14:14:51;5.70;;;5.20;;
35306;SDS011;21420;52.196;21.416;2023-07-16T14:17:18;10.00;;;4.80;;
35306;SDS011;21420;52.196;21.416;2023-07-16T14:19:46;5.20;;;4.70;;
35306;SDS011;21420;52.196;21.416;2023-07-16T14:22:13;5.40;;;4.90;;
35306;SDS011;21420;52.196;21.416;2023-07-16T14:24:42;6.40;;;3.90;;
35306;SDS011;21420;52.196;21.416;2023-07-16T14:27:08;4.70;;;4.30;;
35306;SDS011;21420;52.196;21.416;2023-07-16T14:29:35;6.70;;;4.30;;
35306;SDS011;21420;52.196;21.416;2023-07-16T14:32:13;4.60;;;4.20;;
35306;SDS011;21420;52.196;21.416;2023-07-16T14:34:39;6.20;;;3.80;;
35306;SDS011;21420;52.196;21.416;2023-07-16T14:37:06;5.40;;;4.10;;
35306;SDS011;21420;52.196;21.416;2023-07-16T14:39:33;4.30;;;3.60;;
35306;SDS011;21420;52.196;21.416;2023-07-16T14:41:59;8.20;;;3.90;;
35306;SDS011;21420;52.196;21.416;2023-07-16T14:44:30;4.40;;;4.00;;
35306;SDS011;21420;52.196;21.416;2023-07-16T14:46:57;4.60;;;4.00;;
35306;SDS011;21420;52.196;21.416;2023-07-16T14:49:24;5.00;;;3.60;;